createdAt,value
2024-05-09T00:00:18.190Z,0.20
2024-05-09T00:01:24.069Z,0.20
2024-05-09T00:02:25.930Z,0.20
2024-05-09T00:03:27.722Z,0.20
2024-05-09T00:04:29.548Z,0.20
2024-05-09T00:05:31.560Z,0.20
2024-05-09T00:06:33.304Z,0.20
2024-05-09T00:07:35.010Z,0.20
2024-05-09T00:08:36.781Z,0.10
2024-05-09T00:09:38.479Z,0.20
2024-05-09T00:10:41.136Z,0.20
2024-05-09T00:11:43.450Z,0.20
2024-05-09T00:12:45.218Z,0.20
2024-05-09T00:13:47.439Z,0.20
2024-05-09T00:14:49.190Z,0.10
2024-05-09T00:15:50.937Z,0.20
2024-05-09T00:16:52.791Z,0.20
2024-05-09T00:17:54.832Z,0.20
2024-05-09T00:18:56.674Z,0.10
2024-05-09T00:19:58.531Z,0.20
2024-05-09T00:21:00.494Z,0.20
2024-05-09T00:22:02.434Z,0.20
2024-05-09T00:23:04.331Z,0.10
2024-05-09T00:24:06.220Z,0.20
2024-05-09T00:25:07.951Z,0.20
2024-05-09T00:26:09.735Z,0.10
2024-05-09T00:27:13.317Z,0.10
2024-05-09T00:28:15.244Z,0.20
2024-05-09T00:29:16.959Z,0.20
2024-05-09T00:30:27.757Z,0.20
2024-05-09T00:31:34.411Z,0.10
2024-05-09T00:32:36.386Z,0.20
2024-05-09T00:33:38.288Z,0.20
2024-05-09T00:34:40.111Z,0.20
2024-05-09T00:35:42.005Z,0.20
2024-05-09T00:36:43.772Z,0.10
2024-05-09T00:37:45.455Z,0.20
2024-05-09T00:38:47.229Z,0.17
2024-05-09T00:39:48.928Z,0.20
2024-05-09T00:40:50.719Z,0.20
2024-05-09T00:41:52.520Z,0.10
2024-05-09T00:42:54.251Z,0.20
2024-05-09T00:43:55.955Z,0.20
2024-05-09T00:44:57.707Z,0.20
2024-05-09T00:45:59.762Z,0.20
2024-05-09T00:47:01.595Z,0.10
2024-05-09T00:48:05.606Z,0.20
2024-05-09T00:49:08.727Z,0.20
2024-05-09T00:50:15.965Z,0.20
2024-05-09T00:51:24.311Z,0.20
2024-05-09T00:52:27.533Z,0.15
2024-05-09T00:53:29.590Z,0.20
2024-05-09T00:54:31.582Z,0.20
2024-05-09T00:55:34.907Z,0.20
2024-05-09T00:56:36.722Z,0.20
2024-05-09T00:57:38.673Z,0.15
2024-05-09T00:58:40.656Z,0.20
2024-05-09T00:59:42.603Z,0.20
2024-05-09T01:00:44.748Z,0.20
2024-05-09T01:01:47.335Z,0.20
2024-05-09T01:02:49.162Z,0.20
2024-05-09T01:03:51.443Z,0.20
2024-05-09T01:04:53.539Z,0.15
2024-05-09T01:05:55.552Z,0.10
2024-05-09T01:06:57.508Z,0.20
2024-05-09T01:07:59.279Z,0.20
2024-05-09T01:09:01.119Z,0.20
2024-05-09T01:10:03.252Z,0.20
2024-05-09T01:11:07.240Z,0.20
2024-05-09T01:12:09.228Z,0.20
2024-05-09T01:13:11.212Z,0.20
2024-05-09T01:14:13.054Z,0.20
2024-05-09T01:15:14.922Z,0.20
2024-05-09T01:16:16.635Z,0.20
2024-05-09T01:17:18.769Z,0.20
2024-05-09T01:18:20.753Z,0.20
2024-05-09T01:19:33.102Z,0.20
2024-05-09T01:21:41.238Z,0.20
2024-05-09T01:22:44.534Z,0.20
2024-05-09T01:23:46.297Z,0.20
2024-05-09T01:24:47.981Z,0.20
2024-05-09T01:25:49.728Z,0.20
2024-05-09T01:26:51.581Z,0.20
2024-05-09T01:27:53.296Z,0.20
2024-05-09T01:28:55.134Z,0.20
2024-05-09T01:29:56.850Z,0.20
2024-05-09T01:30:58.551Z,0.20
2024-05-09T01:32:00.316Z,0.20
2024-05-09T01:33:02.381Z,0.20
2024-05-09T01:34:04.389Z,0.20
2024-05-09T01:35:06.464Z,0.20
2024-05-09T01:36:08.669Z,0.15
2024-05-09T01:37:10.437Z,0.20
2024-05-09T01:38:12.275Z,0.20
2024-05-09T01:39:14.110Z,0.20
2024-05-09T01:40:21.977Z,0.20
2024-05-09T01:41:26.708Z,0.20
2024-05-09T01:42:28.526Z,0.20
2024-05-09T01:43:30.244Z,0.20
2024-05-09T01:44:31.996Z,0.20
2024-05-09T01:45:33.712Z,0.10
2024-05-09T01:46:35.456Z,0.20
2024-05-09T01:47:37.455Z,0.20
2024-05-09T01:48:39.369Z,0.20
2024-05-09T01:49:41.173Z,0.20
2024-05-09T01:50:43.625Z,0.20
2024-05-09T01:51:45.595Z,0.20
2024-05-09T01:52:47.334Z,0.20
2024-05-09T01:53:49.248Z,0.20
2024-05-09T01:54:51.117Z,0.20
2024-05-09T01:55:52.912Z,0.20
2024-05-09T01:56:54.591Z,0.13
2024-05-09T01:57:56.294Z,0.13
2024-05-09T01:58:58.089Z,0.20
2024-05-09T01:59:59.888Z,0.20
2024-05-09T02:01:02.080Z,0.20
2024-05-09T02:02:04.262Z,0.20
2024-05-09T02:03:09.309Z,0.10
2024-05-09T02:04:11.670Z,0.10
2024-05-09T02:05:13.639Z,0.20
2024-05-09T02:06:15.444Z,0.20
2024-05-09T02:07:17.791Z,0.20
2024-05-09T02:08:22.060Z,0.10
2024-05-09T02:09:23.929Z,0.10
2024-05-09T02:10:32.066Z,0.20
2024-05-09T02:11:44.061Z,0.17
2024-05-09T02:12:45.801Z,0.20
2024-05-09T02:13:47.511Z,0.20
2024-05-09T02:14:49.257Z,0.20
2024-05-09T02:15:51.093Z,0.20
2024-05-09T02:16:52.777Z,0.10
2024-05-09T02:17:54.756Z,0.20
2024-05-09T02:18:56.761Z,0.20
2024-05-09T02:19:58.513Z,0.20
2024-05-09T02:21:00.497Z,0.17
2024-05-09T02:22:02.335Z,0.20
2024-05-09T02:23:05.299Z,0.20
2024-05-09T02:24:07.460Z,0.10
2024-05-09T02:25:09.206Z,0.20
2024-05-09T02:26:10.976Z,0.20
2024-05-09T02:27:12.723Z,0.20
2024-05-09T02:28:14.442Z,0.20
2024-05-09T02:29:16.200Z,0.20
2024-05-09T02:30:26.222Z,0.20
2024-05-09T02:31:37.519Z,0.20
2024-05-09T02:32:39.473Z,0.20
2024-05-09T02:33:41.403Z,0.10
2024-05-09T02:34:43.218Z,0.20
2024-05-09T02:35:44.968Z,0.20
2024-05-09T02:36:46.793Z,0.20
2024-05-09T02:37:48.540Z,0.20
2024-05-09T02:38:50.329Z,0.20
2024-05-09T02:39:52.102Z,0.20
2024-05-09T02:40:53.858Z,0.20
2024-05-09T02:41:55.579Z,0.20
2024-05-09T02:42:57.287Z,0.20
2024-05-09T02:43:59.081Z,0.20
2024-05-09T02:45:00.895Z,0.20
2024-05-09T02:46:02.585Z,0.20
2024-05-09T02:47:04.492Z,0.20
2024-05-09T02:48:07.347Z,0.20
2024-05-09T02:49:09.314Z,0.20
2024-05-09T02:51:15.092Z,0.13
2024-05-09T02:52:18.341Z,0.20
2024-05-09T02:53:20.189Z,0.20
2024-05-09T02:54:21.946Z,0.20
2024-05-09T02:55:23.656Z,0.20
2024-05-09T02:56:25.447Z,0.20
2024-05-09T02:57:27.221Z,0.20
2024-05-09T02:58:28.939Z,0.20
2024-05-09T02:59:30.708Z,0.20
2024-05-09T03:00:38.557Z,0.20
2024-05-09T03:01:43.019Z,0.20
2024-05-09T03:02:45.152Z,0.20
2024-05-09T03:03:47.160Z,0.10
2024-05-09T03:04:49.161Z,0.20
2024-05-09T03:05:51.073Z,0.20
2024-05-09T03:06:52.889Z,0.20
2024-05-09T03:07:54.651Z,0.20
2024-05-09T03:08:56.376Z,0.20
2024-05-09T03:09:58.097Z,0.20
2024-05-09T03:10:59.808Z,0.20
2024-05-09T03:12:01.734Z,0.13
2024-05-09T03:13:11.894Z,0.20
2024-05-09T03:14:18.336Z,0.28
2024-05-09T03:15:20.205Z,0.20
2024-05-09T03:16:21.916Z,0.20
2024-05-09T03:17:23.823Z,0.10
2024-05-09T03:18:25.771Z,0.20
2024-05-09T03:19:27.648Z,0.20
2024-05-09T03:20:34.166Z,0.20
2024-05-09T03:21:40.655Z,0.20
2024-05-09T03:22:42.404Z,0.20
2024-05-09T03:23:44.269Z,0.20
2024-05-09T03:24:46.081Z,0.20
2024-05-09T03:25:48.100Z,0.20
2024-05-09T03:26:49.838Z,0.20
2024-05-09T03:27:52.469Z,0.17
2024-05-09T03:28:54.218Z,0.20
2024-05-09T03:29:55.960Z,0.30
2024-05-09T03:30:57.663Z,0.10
2024-05-09T03:32:00.281Z,0.20
2024-05-09T03:33:02.262Z,0.20
2024-05-09T03:34:04.344Z,0.20
2024-05-09T03:35:06.829Z,0.20
2024-05-09T03:36:11.078Z,0.20
2024-05-09T03:37:14.044Z,0.20
2024-05-09T03:38:15.940Z,0.20
2024-05-09T03:39:17.788Z,0.20
2024-05-09T03:40:23.702Z,0.20
2024-05-09T03:41:28.236Z,0.20
2024-05-09T03:42:30.005Z,0.20
2024-05-09T03:43:31.711Z,0.20
2024-05-09T03:44:33.462Z,0.20
2024-05-09T03:45:35.222Z,0.20
2024-05-09T03:46:40.178Z,0.20
2024-05-09T03:47:42.336Z,0.20
2024-05-09T03:48:44.400Z,0.20
2024-05-09T03:49:46.253Z,0.20
2024-05-09T03:50:48.482Z,0.20
2024-05-09T03:51:50.272Z,0.20
2024-05-09T03:52:52.056Z,0.22
2024-05-09T03:53:53.813Z,0.20
2024-05-09T03:54:55.513Z,0.20
2024-05-09T03:55:57.301Z,0.20
2024-05-09T03:56:59.128Z,0.20
2024-05-09T03:58:00.911Z,0.20
2024-05-09T03:59:02.676Z,0.20
2024-05-09T04:00:07.434Z,0.20
2024-05-09T04:01:16.640Z,0.20
2024-05-09T04:02:18.553Z,0.20
2024-05-09T04:03:20.652Z,0.20
2024-05-09T04:04:22.717Z,0.20
2024-05-09T04:05:24.561Z,0.20
2024-05-09T04:06:26.804Z,0.10
2024-05-09T04:07:28.536Z,0.20
2024-05-09T04:08:30.286Z,0.20
2024-05-09T04:09:32.057Z,0.20
2024-05-09T04:10:35.042Z,0.20
2024-05-09T04:11:37.308Z,0.20
2024-05-09T04:12:39.241Z,0.20
2024-05-09T04:13:40.943Z,0.10
2024-05-09T04:14:42.802Z,0.20
2024-05-09T04:15:44.545Z,0.20
2024-05-09T04:16:46.387Z,0.20
2024-05-09T04:17:48.248Z,0.10
2024-05-09T04:18:50.506Z,0.20
2024-05-09T04:19:52.921Z,0.20
2024-05-09T04:20:54.725Z,0.20
2024-05-09T04:21:56.506Z,0.20
2024-05-09T04:22:58.259Z,0.20
2024-05-09T04:23:59.979Z,0.20
2024-05-09T04:25:01.755Z,0.20
2024-05-09T04:26:03.663Z,0.20
2024-05-09T04:27:05.481Z,0.17
2024-05-09T04:28:07.404Z,0.20
2024-05-09T04:29:09.195Z,0.20
2024-05-09T04:30:18.553Z,0.20
2024-05-09T04:31:23.532Z,0.20
2024-05-09T04:32:25.511Z,0.20
2024-05-09T04:33:27.563Z,0.20
2024-05-09T04:34:29.513Z,0.20
2024-05-09T04:35:31.443Z,0.20
2024-05-09T04:36:33.209Z,0.20
2024-05-09T04:37:34.905Z,0.20
2024-05-09T04:38:36.716Z,0.20
2024-05-09T04:39:38.506Z,0.20
2024-05-09T04:40:40.233Z,0.20
2024-05-09T04:41:41.898Z,0.20
2024-05-09T04:42:43.645Z,0.20
2024-05-09T04:43:45.347Z,0.10
2024-05-09T04:44:47.119Z,0.20
2024-05-09T04:45:48.952Z,0.20
2024-05-09T04:46:50.754Z,0.20
2024-05-09T04:47:53.965Z,0.20
2024-05-09T04:48:55.791Z,0.20
2024-05-09T04:49:57.491Z,0.20
2024-05-09T04:51:01.716Z,0.20
2024-05-09T04:52:03.548Z,0.20
2024-05-09T04:53:06.703Z,0.20
2024-05-09T04:54:15.764Z,0.20
2024-05-09T04:55:25.073Z,0.20
2024-05-09T04:56:26.857Z,0.20
2024-05-09T04:57:28.647Z,0.20
2024-05-09T04:58:30.414Z,0.20
2024-05-09T04:59:32.212Z,0.20
2024-05-09T05:00:36.876Z,0.20
2024-05-09T05:01:40.697Z,0.10
2024-05-09T05:02:42.581Z,0.15
2024-05-09T05:03:44.628Z,0.20
2024-05-09T05:04:46.591Z,0.20
2024-05-09T05:05:48.584Z,0.20
2024-05-09T05:06:50.332Z,0.10
2024-05-09T05:07:52.173Z,0.17
2024-05-09T05:08:53.930Z,0.20
2024-05-09T05:09:55.626Z,0.20
2024-05-09T05:10:57.458Z,0.20
2024-05-09T05:11:59.473Z,0.20
2024-05-09T05:13:01.267Z,0.17
2024-05-09T05:14:03.130Z,0.20
2024-05-09T05:15:05.183Z,0.20
2024-05-09T05:16:07.156Z,0.20
2024-05-09T05:17:09.022Z,0.20
2024-05-09T05:18:10.922Z,0.20
2024-05-09T05:19:16.009Z,0.20
2024-05-09T05:20:27.362Z,0.20
2024-05-09T05:21:34.722Z,0.20
2024-05-09T05:22:36.471Z,0.20
2024-05-09T05:23:38.348Z,0.20
2024-05-09T05:24:40.207Z,0.20
2024-05-09T05:25:42.478Z,0.20
2024-05-09T05:26:44.260Z,0.20
2024-05-09T05:27:46.079Z,0.20
2024-05-09T05:28:47.879Z,0.17
2024-05-09T05:29:49.721Z,0.20
2024-05-09T05:30:51.545Z,0.20
2024-05-09T05:31:53.475Z,0.20
2024-05-09T05:32:55.397Z,0.20
2024-05-09T05:33:57.423Z,0.10
2024-05-09T05:34:59.298Z,0.10
2024-05-09T05:36:00.967Z,0.10
2024-05-09T05:37:02.742Z,0.20
2024-05-09T05:38:07.310Z,0.10
2024-05-09T05:39:09.066Z,0.10
2024-05-09T05:40:14.636Z,0.20
2024-05-09T05:41:19.217Z,0.10
2024-05-09T05:42:21.008Z,0.10
2024-05-09T05:43:22.957Z,0.10
2024-05-09T05:44:24.699Z,0.10
2024-05-09T05:45:26.541Z,0.10
2024-05-09T05:46:28.279Z,0.10
2024-05-09T05:47:30.121Z,0.10
2024-05-09T05:48:32.170Z,0.10
2024-05-09T05:49:33.997Z,0.10
2024-05-09T05:50:37.919Z,0.10
2024-05-09T05:51:40.504Z,0.10
2024-05-09T05:52:42.244Z,0.10
2024-05-09T05:53:43.958Z,0.10
2024-05-09T05:54:45.731Z,0.10
2024-05-09T05:55:47.509Z,0.10
2024-05-09T05:56:49.248Z,0.10
2024-05-09T05:57:50.963Z,0.10
2024-05-09T05:58:52.818Z,0.10
2024-05-09T05:59:54.571Z,0.10
2024-05-09T06:00:56.373Z,0.10
2024-05-09T06:01:58.134Z,0.10
2024-05-09T06:03:01.015Z,0.10
2024-05-09T06:04:02.853Z,0.10
2024-05-09T06:05:05.123Z,0.10
2024-05-09T06:06:07.029Z,0.10
2024-05-09T06:07:08.836Z,0.10
2024-05-09T06:08:10.678Z,0.10
2024-05-09T06:09:12.455Z,0.10
2024-05-09T06:10:21.236Z,0.10
2024-05-09T06:11:27.247Z,0.10
2024-05-09T06:12:29.100Z,0.10
2024-05-09T06:13:30.819Z,0.10
2024-05-09T06:14:32.625Z,0.10
2024-05-09T06:15:34.573Z,0.10
2024-05-09T06:16:36.275Z,0.10
2024-05-09T06:17:38.102Z,0.10
2024-05-09T06:18:40.289Z,0.10
2024-05-09T06:19:42.217Z,0.10
2024-05-09T06:20:44.477Z,0.10
2024-05-09T06:21:46.328Z,0.13
2024-05-09T06:22:48.040Z,0.10
2024-05-09T06:23:50.039Z,0.10
2024-05-09T06:24:51.794Z,0.20
2024-05-09T06:25:53.571Z,0.10
2024-05-09T06:26:55.338Z,0.10
2024-05-09T06:27:57.055Z,0.10
2024-05-09T06:29:01.004Z,0.10
2024-05-09T06:30:02.993Z,0.10
2024-05-09T06:31:05.413Z,0.10
2024-05-09T06:32:07.431Z,0.10
2024-05-09T06:33:12.152Z,0.17
2024-05-09T06:34:18.543Z,0.10
2024-05-09T06:35:20.473Z,0.10
2024-05-09T06:36:22.176Z,0.10
2024-05-09T06:37:23.878Z,0.10
2024-05-09T06:38:26.360Z,0.10
2024-05-09T06:39:28.061Z,0.10
2024-05-09T06:40:37.132Z,0.10
2024-05-09T06:41:41.143Z,0.10
2024-05-09T06:42:42.920Z,0.10
2024-05-09T06:43:44.735Z,0.10
2024-05-09T06:44:46.503Z,0.10
2024-05-09T06:45:49.082Z,0.10
2024-05-09T06:46:51.165Z,0.10
2024-05-09T06:47:53.126Z,0.10
2024-05-09T06:48:56.314Z,0.10
2024-05-09T06:49:58.279Z,0.10
2024-05-09T06:51:00.059Z,0.10
2024-05-09T06:52:01.795Z,0.10
2024-05-09T06:53:03.799Z,0.10
2024-05-09T06:54:09.153Z,0.10
2024-05-09T06:55:10.825Z,0.10
2024-05-09T06:56:12.790Z,0.10
2024-05-09T06:57:14.559Z,0.10
2024-05-09T06:58:16.417Z,0.10
2024-05-09T06:59:18.251Z,0.10
2024-05-09T07:00:27.454Z,0.10
2024-05-09T07:01:36.601Z,0.10
2024-05-09T07:02:38.522Z,0.10
2024-05-09T07:03:41.713Z,0.10
2024-05-09T07:04:43.535Z,0.10
2024-05-09T07:05:46.964Z,0.10
2024-05-09T07:06:49.606Z,0.10
2024-05-09T07:07:51.381Z,0.10
2024-05-09T07:08:53.820Z,0.10
2024-05-09T07:09:55.652Z,0.10
2024-05-09T07:10:57.501Z,0.10
2024-05-09T07:11:59.511Z,0.10
2024-05-09T07:13:01.409Z,0.10
2024-05-09T07:14:03.152Z,0.10
2024-05-09T07:15:05.288Z,0.10
2024-05-09T07:16:07.157Z,0.10
2024-05-09T07:17:09.179Z,0.10
2024-05-09T07:18:12.450Z,0.10
2024-05-09T07:19:14.867Z,0.10
2024-05-09T07:20:23.533Z,0.10
2024-05-09T07:21:33.749Z,0.10
2024-05-09T07:22:35.506Z,0.10
2024-05-09T07:23:37.490Z,0.10
2024-05-09T07:24:39.228Z,0.10
2024-05-09T07:25:41.788Z,0.10
2024-05-09T07:26:43.798Z,0.00
2024-05-09T07:27:45.505Z,0.10
2024-05-09T07:28:47.336Z,0.10
2024-05-09T07:29:49.070Z,0.10
2024-05-09T07:30:50.892Z,0.10
2024-05-09T07:31:52.647Z,0.10
2024-05-09T07:32:54.472Z,0.10
2024-05-09T07:33:57.075Z,0.10
2024-05-09T07:34:58.902Z,0.10
2024-05-09T07:36:00.561Z,0.10
2024-05-09T07:37:02.638Z,0.10
2024-05-09T07:38:04.615Z,0.10
2024-05-09T07:39:06.318Z,0.10
2024-05-09T07:40:11.991Z,0.00
2024-05-09T07:41:13.843Z,0.00
2024-05-09T07:42:15.571Z,0.00
2024-05-09T07:43:17.302Z,0.05
2024-05-09T07:44:20.401Z,0.10
2024-05-09T07:45:41.649Z,0.10
2024-05-09T07:47:47.931Z,0.10
2024-05-09T07:50:54.585Z,0.10
2024-05-09T07:52:23.416Z,0.10
2024-05-09T07:53:21.870Z,0.10
2024-05-09T07:53:38.377Z,0.10
2024-05-09T07:54:40.892Z,0.10
2024-05-09T07:55:42.881Z,0.10
2024-05-09T07:56:44.942Z,0.10
2024-05-09T07:57:46.913Z,0.10
2024-05-09T07:58:50.171Z,0.00
2024-05-09T07:59:51.886Z,0.10
2024-05-09T08:00:54.403Z,0.10
2024-05-09T08:01:56.368Z,0.10
2024-05-09T08:02:58.156Z,0.10
2024-05-09T08:03:59.951Z,0.10
2024-05-09T08:05:01.857Z,0.00
2024-05-09T08:06:03.895Z,0.05
2024-05-09T08:07:05.675Z,0.10
2024-05-09T08:08:07.625Z,0.00
2024-05-09T08:09:13.887Z,0.10
2024-05-09T08:11:29.086Z,0.10
2024-05-09T08:12:30.950Z,0.03
2024-05-09T08:13:32.613Z,0.10
2024-05-09T08:14:34.391Z,0.10
2024-05-09T08:15:36.131Z,0.10
2024-05-09T08:16:37.921Z,0.10
2024-05-09T08:17:39.755Z,0.00
2024-05-09T08:18:41.669Z,0.00
2024-05-09T08:19:43.619Z,0.10
2024-05-09T08:20:48.496Z,0.10
2024-05-09T08:21:50.231Z,0.00
2024-05-09T08:22:51.990Z,0.00
2024-05-09T08:23:53.733Z,0.10
2024-05-09T08:24:55.405Z,0.10
2024-05-09T08:25:57.101Z,0.10
2024-05-09T08:26:58.815Z,0.10
2024-05-09T08:28:00.681Z,0.10
2024-05-09T08:29:02.962Z,0.10
2024-05-09T08:30:06.330Z,0.10
2024-05-09T08:31:09.811Z,0.10
2024-05-09T08:32:11.637Z,0.00
2024-05-09T08:33:13.477Z,0.10
2024-05-09T08:34:15.460Z,0.10
2024-05-09T08:35:17.442Z,0.10
2024-05-09T08:36:19.165Z,0.10
2024-05-09T08:37:23.482Z,0.00
2024-05-09T08:38:27.767Z,0.00
2024-05-09T08:39:29.586Z,0.10
2024-05-09T08:40:35.410Z,0.05
2024-05-09T08:41:42.658Z,0.00
2024-05-09T08:42:51.869Z,0.00
2024-05-09T08:43:54.116Z,0.00
2024-05-09T08:44:56.483Z,0.00
2024-05-09T08:45:59.560Z,0.00
2024-05-09T08:47:02.797Z,0.10
2024-05-09T08:48:08.359Z,0.00
2024-05-09T08:49:10.972Z,0.00
2024-05-09T08:50:28.587Z,0.00
2024-05-09T08:51:37.651Z,0.10
2024-05-09T08:52:39.421Z,0.00
2024-05-09T08:53:41.151Z,0.00
2024-05-09T08:54:42.997Z,0.10
2024-05-09T08:55:46.502Z,0.00
2024-05-09T08:56:49.327Z,0.00
2024-05-09T08:57:52.344Z,0.00
2024-05-09T08:59:01.160Z,0.00
2024-05-09T09:00:09.937Z,0.00
2024-05-09T09:01:14.810Z,0.00
2024-05-09T09:02:18.189Z,0.00
2024-05-09T09:03:24.863Z,0.03
2024-05-09T09:04:28.883Z,0.00
2024-05-09T09:05:31.671Z,0.00
2024-05-09T09:06:35.547Z,0.00
2024-05-09T09:07:40.382Z,0.00
2024-05-09T09:08:42.391Z,0.00
2024-05-09T09:09:45.719Z,0.00
2024-05-09T09:10:48.200Z,0.03
2024-05-09T09:11:50.282Z,0.00
2024-05-09T09:12:55.663Z,0.00
2024-05-09T09:13:57.463Z,0.00
2024-05-09T09:14:59.364Z,0.00
2024-05-09T09:16:01.188Z,0.00
2024-05-09T09:17:13.123Z,0.00
2024-05-09T09:18:18.578Z,0.00
2024-05-09T09:19:23.411Z,0.00
2024-05-09T09:20:35.610Z,0.00
2024-05-09T09:21:38.705Z,0.00
2024-05-09T09:22:40.452Z,0.00
2024-05-09T09:23:43.276Z,0.00
2024-05-09T09:24:45.659Z,0.00
2024-05-09T09:25:47.530Z,0.00
2024-05-09T09:26:49.291Z,0.00
2024-05-09T09:27:51.403Z,0.00
2024-05-09T09:28:53.387Z,0.00
2024-05-09T09:29:56.817Z,0.00
2024-05-09T09:31:02.476Z,0.00
2024-05-09T09:32:05.056Z,0.00
2024-05-09T09:33:08.667Z,0.00
2024-05-09T09:34:10.676Z,0.10
2024-05-09T09:35:12.600Z,0.00
2024-05-09T09:36:14.419Z,0.05
2024-05-09T09:37:22.139Z,0.00
2024-05-09T09:38:23.948Z,0.00
2024-05-09T09:39:27.934Z,0.00
2024-05-09T09:40:37.259Z,0.00
2024-05-09T09:41:46.369Z,0.00
2024-05-09T09:42:57.661Z,0.00
2024-05-09T09:44:00.945Z,0.00
2024-05-09T09:45:05.556Z,0.00
2024-05-09T09:46:12.251Z,0.00
2024-05-09T09:47:16.519Z,0.00
2024-05-09T09:48:21.217Z,0.00
2024-05-09T09:49:27.480Z,0.00
2024-05-09T09:50:34.326Z,0.00
2024-05-09T09:51:37.851Z,0.00
2024-05-09T09:52:39.708Z,0.00
2024-05-09T09:53:43.600Z,0.00
2024-05-09T09:54:46.117Z,0.00
2024-05-09T09:55:48.581Z,0.00
2024-05-09T09:56:51.468Z,0.00
2024-05-09T09:57:56.157Z,0.00
2024-05-09T09:58:59.388Z,0.00
2024-05-09T10:00:01.252Z,0.00
2024-05-09T10:01:03.030Z,0.00
2024-05-09T10:02:05.366Z,0.00
2024-05-09T10:03:07.256Z,0.00
2024-05-09T10:04:10.365Z,0.00
2024-05-09T10:05:12.395Z,0.00
2024-05-09T10:06:15.397Z,0.00
2024-05-09T10:07:20.442Z,0.00
2024-05-09T10:08:23.848Z,0.05
2024-05-09T10:09:26.375Z,0.00
2024-05-09T10:10:33.228Z,0.00
2024-05-09T10:11:41.941Z,0.00
2024-05-09T10:13:08.486Z,0.00
2024-05-09T10:14:10.519Z,0.00
2024-05-09T10:15:12.290Z,0.00
2024-05-09T10:16:20.830Z,0.00
2024-05-09T10:17:22.649Z,0.00
2024-05-09T10:18:26.100Z,0.00
2024-05-09T10:19:30.169Z,0.00
2024-05-09T10:20:44.987Z,0.00
2024-05-09T10:21:46.997Z,0.00
2024-05-09T10:22:49.355Z,0.00
2024-05-09T10:24:03.246Z,0.00
2024-05-09T10:25:07.286Z,0.00
2024-05-09T10:26:09.051Z,0.00
2024-05-09T10:27:10.798Z,0.00
2024-05-09T10:28:12.862Z,0.00
2024-05-09T10:29:19.242Z,0.00
2024-05-09T10:30:29.647Z,0.00
2024-05-09T10:31:41.037Z,0.00
2024-05-09T10:32:44.795Z,0.00
2024-05-09T10:33:52.345Z,0.00
2024-05-09T10:35:13.347Z,0.00
2024-05-09T10:36:21.666Z,0.00
2024-05-09T10:37:25.227Z,0.00
2024-05-09T10:38:27.161Z,0.10
2024-05-09T10:39:35.171Z,0.00
2024-05-09T10:40:38.114Z,0.00
2024-05-09T10:41:39.929Z,0.00
2024-05-09T10:42:41.865Z,0.00
2024-05-09T10:43:43.720Z,0.00
2024-05-09T10:44:45.464Z,0.00
2024-05-09T10:45:47.693Z,0.00
2024-05-09T10:46:49.940Z,0.00
2024-05-09T10:47:51.952Z,0.00
2024-05-09T10:48:54.263Z,0.00
2024-05-09T10:49:56.966Z,0.00
2024-05-09T10:50:58.927Z,0.00
2024-05-09T10:52:03.805Z,0.00
2024-05-09T10:53:05.595Z,0.00
2024-05-09T10:54:07.309Z,0.00
2024-05-09T10:55:09.098Z,0.00
2024-05-09T10:56:14.015Z,0.00
2024-05-09T10:57:16.076Z,0.00
2024-05-09T10:58:18.272Z,0.00
2024-05-09T10:59:20.021Z,0.00
2024-05-09T11:00:27.754Z,0.00
2024-05-09T11:01:35.520Z,0.00
2024-05-09T11:02:37.608Z,0.00
2024-05-09T11:03:40.133Z,0.00
2024-05-09T11:04:42.492Z,0.00
2024-05-09T11:05:45.872Z,0.00
2024-05-09T11:06:47.916Z,0.00
2024-05-09T11:07:50.318Z,0.00
2024-05-09T11:08:52.475Z,0.00
2024-05-09T11:09:54.532Z,0.00
2024-05-09T11:10:56.496Z,0.00
2024-05-09T11:11:58.643Z,0.00
2024-05-09T11:13:00.550Z,0.00
2024-05-09T11:14:13.814Z,0.00
2024-05-09T11:15:15.531Z,0.00
2024-05-09T11:16:19.121Z,0.00
2024-05-09T11:17:21.313Z,0.00
2024-05-09T11:18:26.441Z,0.00
2024-05-09T11:19:39.275Z,0.00
2024-05-09T11:20:41.242Z,0.00
2024-05-09T11:21:51.115Z,0.05
2024-05-09T11:22:53.007Z,0.00
2024-05-09T11:23:55.106Z,0.00
2024-05-09T11:24:56.962Z,0.00
2024-05-09T11:25:59.332Z,0.00
2024-05-09T11:27:03.951Z,0.00
2024-05-09T11:28:07.716Z,0.00
2024-05-09T11:29:09.475Z,0.03
2024-05-09T11:30:26.687Z,0.00
2024-05-09T11:31:33.546Z,0.00
2024-05-09T11:32:37.613Z,0.00
2024-05-09T11:33:43.546Z,0.00
2024-05-09T11:34:45.351Z,0.00
2024-05-09T11:35:47.223Z,0.00
2024-05-09T11:36:49.005Z,0.10
2024-05-09T11:37:50.883Z,0.00
2024-05-09T11:38:52.679Z,0.00
2024-05-09T11:39:54.468Z,0.00
2024-05-09T11:40:56.311Z,0.00
2024-05-09T11:41:58.254Z,0.00
2024-05-09T11:42:59.960Z,0.00
2024-05-09T11:44:02.075Z,0.00
2024-05-09T11:45:04.116Z,0.00
2024-05-09T11:46:06.107Z,0.00
2024-05-09T11:47:07.947Z,0.00
2024-05-09T11:48:09.863Z,0.30
2024-05-09T11:49:11.858Z,0.00
2024-05-09T11:50:22.461Z,0.00
2024-05-09T11:51:29.198Z,0.10
2024-05-09T11:52:30.948Z,0.00
2024-05-09T11:53:32.645Z,0.00
2024-05-09T11:54:34.388Z,0.00
2024-05-09T11:55:36.241Z,0.00
2024-05-09T11:56:38.147Z,0.00
2024-05-09T11:57:39.981Z,0.00
2024-05-09T11:58:41.758Z,0.00
2024-05-09T11:59:43.594Z,0.00
2024-05-09T12:00:45.584Z,0.00
2024-05-09T12:01:47.615Z,0.00
2024-05-09T12:02:49.385Z,0.00
2024-05-09T12:03:51.209Z,0.45
2024-05-09T12:04:53.153Z,0.00
2024-05-09T12:05:55.190Z,0.10
2024-05-09T12:06:57.076Z,0.00
2024-05-09T12:07:58.891Z,0.00
2024-05-09T12:09:00.748Z,0.00
2024-05-09T12:10:03.486Z,0.03
2024-05-09T12:11:06.515Z,0.00
2024-05-09T12:12:08.301Z,0.00
2024-05-09T12:13:10.384Z,0.00
2024-05-09T12:14:12.148Z,0.00
2024-05-09T12:15:14.017Z,0.00
2024-05-09T12:16:16.169Z,0.00
2024-05-09T12:17:18.126Z,0.00
2024-05-09T12:18:19.941Z,0.00
2024-05-09T12:19:21.682Z,0.00
2024-05-09T12:20:32.168Z,0.00
2024-05-09T12:21:37.818Z,0.00
2024-05-09T12:22:39.490Z,0.00
2024-05-09T12:23:41.146Z,0.00
2024-05-09T12:24:42.943Z,0.00
2024-05-09T12:25:44.794Z,0.00
2024-05-09T12:26:46.790Z,0.00
2024-05-09T12:27:48.560Z,0.00
2024-05-09T12:28:50.260Z,0.00
2024-05-09T12:29:52.021Z,0.00
2024-05-09T12:30:53.826Z,0.00
2024-05-09T12:31:55.667Z,0.00
2024-05-09T12:32:57.529Z,0.00
2024-05-09T12:33:59.316Z,0.00
2024-05-09T12:35:01.105Z,0.00
2024-05-09T12:36:02.915Z,0.00
2024-05-09T12:37:05.045Z,0.03
2024-05-09T12:38:06.771Z,0.00
2024-05-09T12:39:11.719Z,0.10
2024-05-09T12:40:22.477Z,0.00
2024-05-09T12:41:28.461Z,0.00
2024-05-09T12:42:32.524Z,0.03
2024-05-09T12:43:35.039Z,0.00
2024-05-09T12:44:36.801Z,0.00
2024-05-09T12:45:39.288Z,0.00
2024-05-09T12:46:41.332Z,0.00
2024-05-09T12:47:43.052Z,0.00
2024-05-09T12:48:45.115Z,0.03
2024-05-09T12:49:47.129Z,0.00
2024-05-09T12:50:49.131Z,0.00
2024-05-09T12:51:50.933Z,0.00
2024-05-09T12:52:52.645Z,0.00
2024-05-09T12:53:54.364Z,0.00
2024-05-09T12:54:56.122Z,0.00
2024-05-09T12:56:02.207Z,0.00
2024-05-09T12:57:05.445Z,0.00
2024-05-09T12:58:08.104Z,0.00
2024-05-09T12:59:10.054Z,0.00
2024-05-09T13:00:20.684Z,0.00
2024-05-09T13:01:29.545Z,0.00
2024-05-09T13:02:31.485Z,0.00
2024-05-09T13:03:33.546Z,0.00
2024-05-09T13:04:35.522Z,0.00
2024-05-09T13:05:37.458Z,0.00
2024-05-09T13:06:39.315Z,0.08
2024-05-09T13:07:41.236Z,0.00
2024-05-09T13:08:42.993Z,0.00
2024-05-09T13:09:44.804Z,0.10
2024-05-09T13:10:46.738Z,0.00
2024-05-09T13:11:48.587Z,0.10
2024-05-09T13:12:50.389Z,0.00
2024-05-09T13:13:52.147Z,0.00
2024-05-09T13:14:53.839Z,0.00
2024-05-09T13:15:55.699Z,0.10
2024-05-09T13:16:57.564Z,0.00
2024-05-09T13:18:02.312Z,0.00
2024-05-09T13:19:05.217Z,0.08
2024-05-09T13:20:11.977Z,0.10
2024-05-09T13:21:20.165Z,0.10
2024-05-09T13:22:21.976Z,0.10
2024-05-09T13:23:23.721Z,0.00
2024-05-09T13:24:25.412Z,0.05
2024-05-09T13:25:27.187Z,0.00
2024-05-09T13:26:29.078Z,0.00
2024-05-09T13:27:30.878Z,0.10
2024-05-09T13:28:32.887Z,0.00
2024-05-09T13:29:34.579Z,0.00
2024-05-09T13:30:40.692Z,0.03
2024-05-09T13:31:43.820Z,0.03
2024-05-09T13:32:45.609Z,0.10
2024-05-09T13:33:47.516Z,0.00
2024-05-09T13:34:49.543Z,0.00
2024-05-09T13:35:51.424Z,0.00
2024-05-09T13:36:53.560Z,0.00
2024-05-09T13:37:55.909Z,0.00
2024-05-09T13:38:57.648Z,0.00
2024-05-09T13:40:00.431Z,0.00
2024-05-09T13:41:02.200Z,0.00
2024-05-09T13:42:04.198Z,0.00
2024-05-09T13:43:06.411Z,0.00
2024-05-09T13:44:08.314Z,0.00
2024-05-09T13:45:09.986Z,0.00
2024-05-09T13:46:11.802Z,0.00
2024-05-09T13:47:13.785Z,0.00
2024-05-09T13:48:15.730Z,0.00
2024-05-09T13:49:17.967Z,0.00
2024-05-09T13:50:28.121Z,0.00
2024-05-09T13:51:35.462Z,0.03
2024-05-09T13:52:37.214Z,0.00
2024-05-09T13:53:38.956Z,0.00
2024-05-09T13:54:40.763Z,0.00
2024-05-09T13:55:42.501Z,0.00
2024-05-09T13:56:44.375Z,0.00
2024-05-09T13:57:46.226Z,0.00
2024-05-09T13:58:48.002Z,0.10
2024-05-09T13:59:49.799Z,0.00
2024-05-09T14:00:51.664Z,0.00
2024-05-09T14:01:53.572Z,0.00
2024-05-09T14:02:55.485Z,0.00
2024-05-09T14:03:57.476Z,0.00